• Join FlightAware (Why Join?)
  • Login
  • US Flag 
04:48PM EDT


 

Airport Tracker/Info


-or-


 

Live Flight TrackerFlight Track Log ✈ XA-ASH ✈ 28-Jun-2013 ✈ KBRO - MMAN / NTR

Flight Track Log - Related Links

Times and Time Zones

All times are in EDT time to prevent confusion due to time zone crossing. See the XA-ASH flight status page for this flight to view local times or setup timezone preferences in your user account.

Time Position Orientation Groundspeed Altitude Reporting Facility
EDT Latitude Longitude Course Direction KTS MPH feet Rate Location/Type
07:23PM 25.8969 -97.4133 215° Southwest 158 182 700  Level Houston Center
07:24PM 25.8600 -97.4417 215° Southwest 225 259 4,700 3,420 Climbing Houston Center
07:25PM 25.8717 -97.5594 276° West 274 315 9,400 3,240 Climbing Houston Center
07:26PM 25.8814 -97.6547 276° West 306 352 12,700 2,940 Climbing Houston Center
07:27PM 25.8983 -97.7436 282° West 296 341 15,500 2,280 Climbing Houston Center
07:28PM 25.9150 -97.8381 281° West 289 333 17,500 1,680 Climbing Houston Center
07:29PM 25.9325 -97.9353 281° West 315 362 19,000 1,200 Climbing Houston Center
07:30PM 25.9617 -98.0467 286° West 343 395 20,000 480 Climbing Houston Center
07:32PM 25.9989 -98.1608 290° West 389 448 20,000  Level Houston Center
07:33PM 26.0019 -98.2922 272° West 426 490 20,000  Level Houston Center
07:34PM 25.9800 -98.4331 260° West 430 495 20,000  Level Houston Center
07:35PM 25.9575 -98.5614 259° West 425 489 20,000  Level Houston Center
07:36PM 25.9339 -98.6981 259° West 421 484 20,000 -60 Level Houston Center
07:37PM 25.9203 -98.8250 263° West 418 481 19,900 -60 Descending Houston Center
07:38PM 25.9083 -98.9511 264° West 415 478 19,900  Level Houston Center
07:39PM 25.8958 -99.0783 264° West 414 476 19,900  Level Houston Center
07:40PM 25.8847 -99.2072 265° West 414 476 19,900 -420 Level Houston Center
07:41PM 25.8742 -99.3356 265° West 415 478 19,100 -1,200 Descending Houston Center
07:42PM 25.8683 -99.4642 267° West 417 480 17,500 -2,040 Descending Houston Center
07:43PM 25.8803 -99.5925 276° West 417 480 14,900 -2,760 Descending Houston Center
07:44PM 25.8944 -99.7378 276° West 411 473 11,800 -2,820 Descending Houston Center
07:45PM 25.9089 -99.8472 278° West 391 450 9,100 -2,580 Descending Houston Center
07:46PM 25.9169 -99.9214 277° West 319 367 6,500 -1,800 Descending Houston Center
07:47PM 25.9247 -99.9947 277° West 297 342 5,500 -1,020 Descending Houston Center